LUK weather

Cincinnati Municipal Airport Lunken Field
Cincinnati, Ohio, United States

Public forecast

Using degrees Fahrenheit for public forecast. Weather courtesy of forecast.io.

METAR (pilot weather report)

Retrieved 2017/11/19 22:53 UTC (19 minutes ago):

KLUK 192253Z 27008KT 10SM CLR 02/M04 A3011 RMK AO2 SLP199 T00221039

TAF (pilot weather forecast)

Retrieved 2017/11/19 18:42 UTC (5 hours ago):

TAF KLUK 191740Z 1918/2018 29012G22KT P6SM OVC035 TEMPO 1918/1919 BKN028 FM192300 28012KT P6SM SCT035 FM200400 24005KT P6SM SKC FM201400 21008KT P6SM SCT250